sensor_id;sensor_type;location;lat;lon;timestamp;P1;durP1;ratioP1;P2;durP2;ratioP2
63050;SDS011;49136;47.416;19.402;2022-07-01T00:00:00;13.55;;;7.35;;
63050;SDS011;49136;47.416;19.402;2022-07-01T00:02:25;17.83;;;8.00;;
63050;SDS011;49136;47.416;19.402;2022-07-01T00:04:51;18.30;;;8.15;;
63050;SDS011;49136;47.416;19.402;2022-07-01T00:07:17;12.52;;;7.00;;
63050;SDS011;49136;47.416;19.402;2022-07-01T00:09:42;15.40;;;8.65;;
63050;SDS011;49136;47.416;19.402;2022-07-01T00:12:08;14.07;;;7.63;;
63050;SDS011;49136;47.416;19.402;2022-07-01T00:14:34;16.27;;;9.00;;
63050;SDS011;49136;47.416;19.402;2022-07-01T00:16:59;19.70;;;8.73;;
63050;SDS011;49136;47.416;19.402;2022-07-01T00:19:24;15.38;;;8.02;;
63050;SDS011;49136;47.416;19.402;2022-07-01T00:21:50;14.05;;;8.68;;
63050;SDS011;49136;47.416;19.402;2022-07-01T00:24:16;16.15;;;8.95;;
63050;SDS011;49136;47.416;19.402;2022-07-01T00:26:41;16.45;;;7.88;;
63050;SDS011;49136;47.416;19.402;2022-07-01T00:29:07;29.13;;;9.88;;
63050;SDS011;49136;47.416;19.402;2022-07-01T00:31:32;20.58;;;9.93;;
63050;SDS011;49136;47.416;19.402;2022-07-01T00:33:58;18.40;;;8.48;;
63050;SDS011;49136;47.416;19.402;2022-07-01T00:36:23;13.52;;;8.35;;
63050;SDS011;49136;47.416;19.402;2022-07-01T00:38:48;25.00;;;9.30;;
63050;SDS011;49136;47.416;19.402;2022-07-01T00:41:14;16.27;;;8.35;;
63050;SDS011;49136;47.416;19.402;2022-07-01T00:43:41;17.05;;;8.35;;
63050;SDS011;49136;47.416;19.402;2022-07-01T00:46:06;20.00;;;8.18;;
63050;SDS011;49136;47.416;19.402;2022-07-01T00:48:32;22.48;;;9.10;;
63050;SDS011;49136;47.416;19.402;2022-07-01T00:50:59;16.23;;;8.30;;
63050;SDS011;49136;47.416;19.402;2022-07-01T00:53:25;13.43;;;8.90;;
63050;SDS011;49136;47.416;19.402;2022-07-01T00:55:51;13.20;;;7.25;;
63050;SDS011;49136;47.416;19.402;2022-07-01T00:58:16;14.90;;;7.90;;
63050;SDS011;49136;47.416;19.402;2022-07-01T01:00:42;24.83;;;9.27;;
63050;SDS011;49136;47.416;19.402;2022-07-01T01:03:08;24.48;;;9.25;;
63050;SDS011;49136;47.416;19.402;2022-07-01T01:05:36;22.83;;;8.73;;
63050;SDS011;49136;47.416;19.402;2022-07-01T01:08:02;21.35;;;8.77;;
63050;SDS011;49136;47.416;19.402;2022-07-01T01:10:28;24.00;;;8.88;;
63050;SDS011;49136;47.416;19.402;2022-07-01T01:12:56;25.15;;;9.05;;
63050;SDS011;49136;47.416;19.402;2022-07-01T01:15:22;21.60;;;8.90;;
63050;SDS011;49136;47.416;19.402;2022-07-01T01:17:48;18.90;;;8.85;;
63050;SDS011;49136;47.416;19.402;2022-07-01T01:20:16;12.35;;;8.48;;
63050;SDS011;49136;47.416;19.402;2022-07-01T01:22:43;29.13;;;9.45;;
63050;SDS011;49136;47.416;19.402;2022-07-01T01:25:09;21.20;;;8.10;;
63050;SDS011;49136;47.416;19.402;2022-07-01T01:27:34;15.35;;;7.78;;
63050;SDS011;49136;47.416;19.402;2022-07-01T01:30:02;22.58;;;7.93;;
63050;SDS011;49136;47.416;19.402;2022-07-01T01:32:29;22.92;;;9.45;;
63050;SDS011;49136;47.416;19.402;2022-07-01T01:34:54;16.35;;;8.00;;
63050;SDS011;49136;47.416;19.402;2022-07-01T01:37:20;19.38;;;8.30;;
63050;SDS011;49136;47.416;19.402;2022-07-01T01:39:45;19.85;;;7.40;;
63050;SDS011;49136;47.416;19.402;2022-07-01T01:42:10;14.80;;;7.47;;
63050;SDS011;49136;47.416;19.402;2022-07-01T01:44:36;14.25;;;7.60;;
63050;SDS011;49136;47.416;19.402;2022-07-01T01:47:02;14.80;;;7.70;;
63050;SDS011;49136;47.416;19.402;2022-07-01T01:49:27;16.90;;;7.75;;
63050;SDS011;49136;47.416;19.402;2022-07-01T01:51:53;19.17;;;7.18;;
63050;SDS011;49136;47.416;19.402;2022-07-01T01:54:19;12.57;;;7.03;;
63050;SDS011;49136;47.416;19.402;2022-07-01T01:56:44;15.80;;;8.70;;
63050;SDS011;49136;47.416;19.402;2022-07-01T01:59:10;16.00;;;7.72;;
63050;SDS011;49136;47.416;19.402;2022-07-01T02:01:39;10.75;;;7.18;;
63050;SDS011;49136;47.416;19.402;2022-07-01T02:04:05;18.38;;;8.00;;
63050;SDS011;49136;47.416;19.402;2022-07-01T02:06:30;14.57;;;7.72;;
63050;SDS011;49136;47.416;19.402;2022-07-01T02:08:56;13.98;;;8.60;;
63050;SDS011;49136;47.416;19.402;2022-07-01T02:11:21;14.10;;;7.47;;
63050;SDS011;49136;47.416;19.402;2022-07-01T02:13:46;13.88;;;8.32;;
63050;SDS011;49136;47.416;19.402;2022-07-01T02:16:12;15.05;;;8.13;;
63050;SDS011;49136;47.416;19.402;2022-07-01T02:18:38;13.48;;;7.65;;
63050;SDS011;49136;47.416;19.402;2022-07-01T02:21:03;22.08;;;8.52;;
63050;SDS011;49136;47.416;19.402;2022-07-01T02:23:28;17.95;;;8.88;;
63050;SDS011;49136;47.416;19.402;2022-07-01T02:25:54;26.08;;;8.73;;
63050;SDS011;49136;47.416;19.402;2022-07-01T02:28:20;22.08;;;9.57;;
63050;SDS011;49136;47.416;19.402;2022-07-01T02:30:46;18.38;;;8.88;;
63050;SDS011;49136;47.416;19.402;2022-07-01T02:33:11;21.33;;;8.57;;
63050;SDS011;49136;47.416;19.402;2022-07-01T02:35:39;19.05;;;8.20;;
63050;SDS011;49136;47.416;19.402;2022-07-01T02:38:05;21.98;;;9.10;;
63050;SDS011;49136;47.416;19.402;2022-07-01T02:40:32;19.73;;;9.40;;
63050;SDS011;49136;47.416;19.402;2022-07-01T02:43:02;18.77;;;7.60;;
63050;SDS011;49136;47.416;19.402;2022-07-01T02:45:28;18.52;;;8.10;;
63050;SDS011;49136;47.416;19.402;2022-07-01T02:47:53;17.58;;;8.32;;
63050;SDS011;49136;47.416;19.402;2022-07-01T02:50:19;13.60;;;7.78;;
63050;SDS011;49136;47.416;19.402;2022-07-01T02:52:44;19.23;;;8.38;;
63050;SDS011;49136;47.416;19.402;2022-07-01T02:55:11;18.08;;;8.45;;
63050;SDS011;49136;47.416;19.402;2022-07-01T02:57:38;23.25;;;8.32;;
63050;SDS011;49136;47.416;19.402;2022-07-01T03:00:05;16.95;;;7.95;;
63050;SDS011;49136;47.416;19.402;2022-07-01T03:02:32;17.98;;;8.07;;
63050;SDS011;49136;47.416;19.402;2022-07-01T03:04:59;25.65;;;8.32;;
63050;SDS011;49136;47.416;19.402;2022-07-01T03:07:25;16.35;;;8.02;;
63050;SDS011;49136;47.416;19.402;2022-07-01T03:09:50;17.52;;;7.72;;
63050;SDS011;49136;47.416;19.402;2022-07-01T03:12:16;15.63;;;8.38;;
63050;SDS011;49136;47.416;19.402;2022-07-01T03:14:52;16.30;;;7.97;;
63050;SDS011;49136;47.416;19.402;2022-07-01T03:17:40;16.83;;;7.50;;
63050;SDS011;49136;47.416;19.402;2022-07-01T03:20:07;22.95;;;8.35;;
63050;SDS011;49136;47.416;19.402;2022-07-01T03:22:37;35.13;;;9.40;;
63050;SDS011;49136;47.416;19.402;2022-07-01T03:25:03;15.00;;;8.35;;
63050;SDS011;49136;47.416;19.402;2022-07-01T03:27:30;26.83;;;9.02;;
63050;SDS011;49136;47.416;19.402;2022-07-01T03:29:56;21.60;;;8.23;;
63050;SDS011;49136;47.416;19.402;2022-07-01T03:32:22;20.42;;;9.07;;
63050;SDS011;49136;47.416;19.402;2022-07-01T03:34:48;20.38;;;9.10;;
63050;SDS011;49136;47.416;19.402;2022-07-01T03:37:15;16.83;;;8.15;;
63050;SDS011;49136;47.416;19.402;2022-07-01T03:39:42;17.27;;;8.63;;
63050;SDS011;49136;47.416;19.402;2022-07-01T03:42:08;19.48;;;8.88;;
63050;SDS011;49136;47.416;19.402;2022-07-01T03:44:34;15.35;;;9.13;;
63050;SDS011;49136;47.416;19.402;2022-07-01T03:47:00;17.58;;;9.35;;
63050;SDS011;49136;47.416;19.402;2022-07-01T03:49:26;15.77;;;8.57;;
63050;SDS011;49136;47.416;19.402;2022-07-01T03:51:51;19.05;;;9.38;;
63050;SDS011;49136;47.416;19.402;2022-07-01T03:54:17;16.05;;;8.10;;
63050;SDS011;49136;47.416;19.402;2022-07-01T03:59:29;23.73;;;9.60;;
63050;SDS011;49136;47.416;19.402;2022-07-01T04:01:56;18.77;;;9.20;;
63050;SDS011;49136;47.416;19.402;2022-07-01T04:04:23;21.65;;;9.05;;
63050;SDS011;49136;47.416;19.402;2022-07-01T04:06:49;19.75;;;8.70;;
63050;SDS011;49136;47.416;19.402;2022-07-01T04:09:16;27.13;;;9.35;;
63050;SDS011;49136;47.416;19.402;2022-07-01T04:11:42;18.85;;;9.55;;
63050;SDS011;49136;47.416;19.402;2022-07-01T04:14:09;19.65;;;7.95;;
63050;SDS011;49136;47.416;19.402;2022-07-01T04:16:35;21.58;;;9.25;;
63050;SDS011;49136;47.416;19.402;2022-07-01T04:19:01;17.83;;;9.50;;
63050;SDS011;49136;47.416;19.402;2022-07-01T04:21:27;21.13;;;8.68;;
63050;SDS011;49136;47.416;19.402;2022-07-01T04:24:11;15.55;;;8.90;;
63050;SDS011;49136;47.416;19.402;2022-07-01T04:26:38;18.02;;;9.05;;
63050;SDS011;49136;47.416;19.402;2022-07-01T04:29:04;14.60;;;8.90;;
63050;SDS011;49136;47.416;19.402;2022-07-01T04:31:30;14.00;;;8.40;;
63050;SDS011;49136;47.416;19.402;2022-07-01T04:33:56;15.80;;;8.93;;
63050;SDS011;49136;47.416;19.402;2022-07-01T04:36:21;21.52;;;8.80;;
63050;SDS011;49136;47.416;19.402;2022-07-01T04:38:47;26.92;;;8.40;;
63050;SDS011;49136;47.416;19.402;2022-07-01T04:41:12;18.38;;;8.20;;
63050;SDS011;49136;47.416;19.402;2022-07-01T04:43:56;17.20;;;8.20;;
63050;SDS011;49136;47.416;19.402;2022-07-01T04:46:22;15.50;;;7.97;;
63050;SDS011;49136;47.416;19.402;2022-07-01T04:48:47;16.67;;;8.90;;
63050;SDS011;49136;47.416;19.402;2022-07-01T04:51:13;20.30;;;8.80;;
63050;SDS011;49136;47.416;19.402;2022-07-01T04:53:38;13.63;;;7.68;;
63050;SDS011;49136;47.416;19.402;2022-07-01T04:56:04;13.52;;;8.50;;
63050;SDS011;49136;47.416;19.402;2022-07-01T04:58:29;14.43;;;7.68;;
63050;SDS011;49136;47.416;19.402;2022-07-01T05:00:55;19.65;;;8.45;;
63050;SDS011;49136;47.416;19.402;2022-07-01T05:03:20;17.40;;;8.13;;
63050;SDS011;49136;47.416;19.402;2022-07-01T05:05:46;17.55;;;7.75;;
63050;SDS011;49136;47.416;19.402;2022-07-01T05:08:11;14.13;;;7.55;;
63050;SDS011;49136;47.416;19.402;2022-07-01T05:10:36;15.77;;;6.90;;
63050;SDS011;49136;47.416;19.402;2022-07-01T05:13:02;14.80;;;6.70;;
63050;SDS011;49136;47.416;19.402;2022-07-01T05:15:28;13.57;;;7.25;;
63050;SDS011;49136;47.416;19.402;2022-07-01T05:17:54;21.70;;;6.68;;
63050;SDS011;49136;47.416;19.402;2022-07-01T05:20:38;12.50;;;6.35;;
63050;SDS011;49136;47.416;19.402;2022-07-01T05:23:22;31.08;;;8.57;;
63050;SDS011;49136;47.416;19.402;2022-07-01T05:25:47;36.08;;;8.18;;
63050;SDS011;49136;47.416;19.402;2022-07-01T05:28:13;16.50;;;7.38;;
63050;SDS011;49136;47.416;19.402;2022-07-01T05:30:38;13.07;;;7.13;;
63050;SDS011;49136;47.416;19.402;2022-07-01T05:33:04;15.20;;;6.88;;
63050;SDS011;49136;47.416;19.402;2022-07-01T05:35:29;18.15;;;7.22;;
63050;SDS011;49136;47.416;19.402;2022-07-01T05:37:56;18.20;;;8.10;;
63050;SDS011;49136;47.416;19.402;2022-07-01T05:40:21;14.38;;;6.95;;
63050;SDS011;49136;47.416;19.402;2022-07-01T05:42:47;16.02;;;8.00;;
63050;SDS011;49136;47.416;19.402;2022-07-01T05:45:13;13.98;;;7.68;;
63050;SDS011;49136;47.416;19.402;2022-07-01T05:47:38;16.85;;;7.50;;
63050;SDS011;49136;47.416;19.402;2022-07-01T05:50:03;16.15;;;7.35;;
63050;SDS011;49136;47.416;19.402;2022-07-01T05:52:29;16.05;;;8.13;;
63050;SDS011;49136;47.416;19.402;2022-07-01T05:57:26;26.52;;;8.75;;
63050;SDS011;49136;47.416;19.402;2022-07-01T05:59:51;22.10;;;7.82;;
63050;SDS011;49136;47.416;19.402;2022-07-01T06:02:16;20.50;;;7.88;;
63050;SDS011;49136;47.416;19.402;2022-07-01T06:04:42;15.43;;;8.38;;
63050;SDS011;49136;47.416;19.402;2022-07-01T06:07:08;26.45;;;8.13;;
63050;SDS011;49136;47.416;19.402;2022-07-01T06:09:38;12.65;;;7.57;;
63050;SDS011;49136;47.416;19.402;2022-07-01T06:12:04;17.33;;;7.78;;
63050;SDS011;49136;47.416;19.402;2022-07-01T06:14:30;14.73;;;8.15;;
63050;SDS011;49136;47.416;19.402;2022-07-01T06:16:55;15.75;;;8.10;;
63050;SDS011;49136;47.416;19.402;2022-07-01T06:19:21;14.93;;;8.25;;
63050;SDS011;49136;47.416;19.402;2022-07-01T06:21:46;21.20;;;9.20;;
63050;SDS011;49136;47.416;19.402;2022-07-01T06:24:12;13.73;;;8.02;;
63050;SDS011;49136;47.416;19.402;2022-07-01T06:26:37;15.32;;;8.88;;
63050;SDS011;49136;47.416;19.402;2022-07-01T06:29:03;16.45;;;7.82;;
63050;SDS011;49136;47.416;19.402;2022-07-01T06:31:28;18.45;;;7.82;;
63050;SDS011;49136;47.416;19.402;2022-07-01T06:33:54;13.00;;;8.30;;
63050;SDS011;49136;47.416;19.402;2022-07-01T06:36:20;14.13;;;7.90;;
63050;SDS011;49136;47.416;19.402;2022-07-01T06:38:45;12.75;;;8.55;;
63050;SDS011;49136;47.416;19.402;2022-07-01T06:41:10;12.85;;;7.63;;
63050;SDS011;49136;47.416;19.402;2022-07-01T06:44:01;13.15;;;7.75;;
63050;SDS011;49136;47.416;19.402;2022-07-01T06:46:27;21.10;;;7.53;;
63050;SDS011;49136;47.416;19.402;2022-07-01T06:48:54;13.15;;;7.03;;
63050;SDS011;49136;47.416;19.402;2022-07-01T06:51:21;12.07;;;6.85;;
63050;SDS011;49136;47.416;19.402;2022-07-01T06:53:47;15.13;;;7.65;;
63050;SDS011;49136;47.416;19.402;2022-07-01T06:56:12;15.20;;;6.57;;
63050;SDS011;49136;47.416;19.402;2022-07-01T06:58:39;17.35;;;7.72;;
63050;SDS011;49136;47.416;19.402;2022-07-01T07:01:05;15.20;;;6.32;;
63050;SDS011;49136;47.416;19.402;2022-07-01T07:03:30;14.70;;;7.32;;
63050;SDS011;49136;47.416;19.402;2022-07-01T07:05:57;14.52;;;6.80;;
63050;SDS011;49136;47.416;19.402;2022-07-01T07:08:25;23.83;;;7.97;;
63050;SDS011;49136;47.416;19.402;2022-07-01T07:10:52;18.02;;;6.93;;
63050;SDS011;49136;47.416;19.402;2022-07-01T07:13:17;10.90;;;6.97;;
63050;SDS011;49136;47.416;19.402;2022-07-01T07:15:43;19.17;;;6.75;;
63050;SDS011;49136;47.416;19.402;2022-07-01T07:18:08;12.43;;;6.30;;
63050;SDS011;49136;47.416;19.402;2022-07-01T07:20:34;17.73;;;6.88;;
63050;SDS011;49136;47.416;19.402;2022-07-01T07:23:00;14.98;;;6.75;;
63050;SDS011;49136;47.416;19.402;2022-07-01T07:25:25;17.60;;;7.70;;
63050;SDS011;49136;47.416;19.402;2022-07-01T07:27:51;14.07;;;6.47;;
63050;SDS011;49136;47.416;19.402;2022-07-01T07:30:16;16.25;;;6.72;;
63050;SDS011;49136;47.416;19.402;2022-07-01T07:32:42;10.30;;;6.30;;
63050;SDS011;49136;47.416;19.402;2022-07-01T07:35:08;16.05;;;6.85;;
63050;SDS011;49136;47.416;19.402;2022-07-01T07:37:34;12.77;;;6.03;;
63050;SDS011;49136;47.416;19.402;2022-07-01T07:40:00;13.05;;;6.22;;
63050;SDS011;49136;47.416;19.402;2022-07-01T07:42:27;17.50;;;7.28;;
63050;SDS011;49136;47.416;19.402;2022-07-01T07:44:52;15.20;;;6.25;;
63050;SDS011;49136;47.416;19.402;2022-07-01T07:47:18;23.65;;;9.20;;
63050;SDS011;49136;47.416;19.402;2022-07-01T07:49:44;14.02;;;7.80;;
63050;SDS011;49136;47.416;19.402;2022-07-01T07:52:09;15.10;;;7.13;;
63050;SDS011;49136;47.416;19.402;2022-07-01T07:54:34;15.38;;;6.78;;
63050;SDS011;49136;47.416;19.402;2022-07-01T07:57:00;13.75;;;7.32;;
63050;SDS011;49136;47.416;19.402;2022-07-01T07:59:25;12.82;;;7.18;;
63050;SDS011;49136;47.416;19.402;2022-07-01T08:01:51;10.63;;;6.78;;
63050;SDS011;49136;47.416;19.402;2022-07-01T08:04:17;10.98;;;6.97;;
63050;SDS011;49136;47.416;19.402;2022-07-01T08:06:42;11.85;;;7.70;;
63050;SDS011;49136;47.416;19.402;2022-07-01T08:09:07;11.23;;;7.05;;
63050;SDS011;49136;47.416;19.402;2022-07-01T08:11:33;13.68;;;6.78;;
63050;SDS011;49136;47.416;19.402;2022-07-01T08:13:58;12.68;;;7.45;;
63050;SDS011;49136;47.416;19.402;2022-07-01T08:16:24;11.95;;;5.85;;
63050;SDS011;49136;47.416;19.402;2022-07-01T08:18:49;12.52;;;6.20;;
63050;SDS011;49136;47.416;19.402;2022-07-01T08:21:15;18.52;;;6.43;;
63050;SDS011;49136;47.416;19.402;2022-07-01T08:23:40;15.43;;;6.75;;
63050;SDS011;49136;47.416;19.402;2022-07-01T08:26:06;12.25;;;5.85;;
63050;SDS011;49136;47.416;19.402;2022-07-01T08:28:31;14.88;;;6.50;;
63050;SDS011;49136;47.416;19.402;2022-07-01T08:30:56;14.00;;;6.18;;
63050;SDS011;49136;47.416;19.402;2022-07-01T08:33:22;11.55;;;6.60;;
63050;SDS011;49136;47.416;19.402;2022-07-01T08:35:47;10.23;;;5.82;;
63050;SDS011;49136;47.416;19.402;2022-07-01T08:38:13;14.13;;;6.43;;
63050;SDS011;49136;47.416;19.402;2022-07-01T08:40:38;15.07;;;6.85;;
63050;SDS011;49136;47.416;19.402;2022-07-01T08:43:05;12.65;;;6.47;;
63050;SDS011;49136;47.416;19.402;2022-07-01T08:45:32;11.35;;;6.40;;
63050;SDS011;49136;47.416;19.402;2022-07-01T08:47:59;11.18;;;6.55;;
63050;SDS011;49136;47.416;19.402;2022-07-01T08:50:26;11.48;;;6.80;;
63050;SDS011;49136;47.416;19.402;2022-07-01T08:52:53;10.07;;;6.63;;
63050;SDS011;49136;47.416;19.402;2022-07-01T08:55:22;16.42;;;6.22;;
63050;SDS011;49136;47.416;19.402;2022-07-01T08:57:49;9.45;;;6.50;;
63050;SDS011;49136;47.416;19.402;2022-07-01T09:00:14;10.80;;;6.22;;
63050;SDS011;49136;47.416;19.402;2022-07-01T09:05:20;15.93;;;5.82;;
63050;SDS011;49136;47.416;19.402;2022-07-01T09:07:47;10.23;;;6.07;;
63050;SDS011;49136;47.416;19.402;2022-07-01T09:10:14;16.90;;;5.82;;
63050;SDS011;49136;47.416;19.402;2022-07-01T09:12:43;14.10;;;5.82;;
63050;SDS011;49136;47.416;19.402;2022-07-01T09:15:19;13.75;;;5.85;;
63050;SDS011;49136;47.416;19.402;2022-07-01T09:17:54;14.18;;;6.47;;
63050;SDS011;49136;47.416;19.402;2022-07-01T09:20:31;6.63;;;5.38;;
63050;SDS011;49136;47.416;19.402;2022-07-01T09:25:35;11.02;;;5.47;;
63050;SDS011;49136;47.416;19.402;2022-07-01T09:28:06;13.60;;;5.20;;
63050;SDS011;49136;47.416;19.402;2022-07-01T09:30:33;14.20;;;5.70;;
63050;SDS011;49136;47.416;19.402;2022-07-01T09:33:06;13.45;;;5.60;;
63050;SDS011;49136;47.416;19.402;2022-07-01T09:35:31;9.77;;;4.38;;
63050;SDS011;49136;47.416;19.402;2022-07-01T09:37:58;11.82;;;5.40;;
63050;SDS011;49136;47.416;19.402;2022-07-01T09:40:24;16.83;;;5.40;;
63050;SDS011;49136;47.416;19.402;2022-07-01T09:42:49;14.57;;;4.75;;
63050;SDS011;49136;47.416;19.402;2022-07-01T09:45:15;12.85;;;5.55;;
63050;SDS011;49136;47.416;19.402;2022-07-01T09:47:42;10.18;;;4.50;;
63050;SDS011;49136;47.416;19.402;2022-07-01T09:50:08;9.23;;;4.40;;
63050;SDS011;49136;47.416;19.402;2022-07-01T09:52:34;11.70;;;4.93;;
63050;SDS011;49136;47.416;19.402;2022-07-01T09:55:00;12.07;;;4.32;;
63050;SDS011;49136;47.416;19.402;2022-07-01T09:57:25;12.55;;;4.78;;
63050;SDS011;49136;47.416;19.402;2022-07-01T09:59:51;12.18;;;4.50;;
63050;SDS011;49136;47.416;19.402;2022-07-01T10:02:17;18.67;;;4.80;;
63050;SDS011;49136;47.416;19.402;2022-07-01T10:04:53;12.77;;;5.00;;
63050;SDS011;49136;47.416;19.402;2022-07-01T10:13:24;13.25;;;5.38;;
63050;SDS011;49136;47.416;19.402;2022-07-01T10:15:51;7.40;;;4.88;;
63050;SDS011;49136;47.416;19.402;2022-07-01T10:18:22;11.15;;;4.82;;
63050;SDS011;49136;47.416;19.402;2022-07-01T10:23:15;12.40;;;5.10;;
63050;SDS011;49136;47.416;19.402;2022-07-01T10:25:47;15.57;;;5.60;;
63050;SDS011;49136;47.416;19.402;2022-07-01T10:30:53;10.98;;;6.03;;
63050;SDS011;49136;47.416;19.402;2022-07-01T10:33:28;16.27;;;6.20;;
63050;SDS011;49136;47.416;19.402;2022-07-01T10:41:27;22.02;;;6.93;;
63050;SDS011;49136;47.416;19.402;2022-07-01T10:43:54;10.27;;;6.68;;
63050;SDS011;49136;47.416;19.402;2022-07-01T10:49:14;11.80;;;6.25;;
63050;SDS011;49136;47.416;19.402;2022-07-01T10:57:18;14.43;;;6.82;;
63050;SDS011;49136;47.416;19.402;2022-07-01T11:02:31;13.90;;;6.00;;
63050;SDS011;49136;47.416;19.402;2022-07-01T11:04:59;13.80;;;6.60;;
63050;SDS011;49136;47.416;19.402;2022-07-01T11:07:31;15.82;;;6.43;;
63050;SDS011;49136;47.416;19.402;2022-07-01T11:09:58;10.90;;;6.00;;
63050;SDS011;49136;47.416;19.402;2022-07-01T11:12:24;15.18;;;6.70;;
63050;SDS011;49136;47.416;19.402;2022-07-01T11:14:50;13.52;;;5.72;;
63050;SDS011;49136;47.416;19.402;2022-07-01T11:17:16;14.48;;;5.75;;
63050;SDS011;49136;47.416;19.402;2022-07-01T11:19:49;12.18;;;5.50;;
63050;SDS011;49136;47.416;19.402;2022-07-01T11:22:24;16.58;;;5.90;;
63050;SDS011;49136;47.416;19.402;2022-07-01T11:25:00;9.00;;;5.50;;
63050;SDS011;49136;47.416;19.402;2022-07-01T11:27:30;14.52;;;5.68;;
63050;SDS011;49136;47.416;19.402;2022-07-01T11:29:59;15.18;;;5.82;;
63050;SDS011;49136;47.416;19.402;2022-07-01T11:32:33;10.43;;;6.03;;
63050;SDS011;49136;47.416;19.402;2022-07-01T11:35:01;12.57;;;5.75;;
63050;SDS011;49136;47.416;19.402;2022-07-01T11:37:28;13.52;;;6.28;;
63050;SDS011;49136;47.416;19.402;2022-07-01T11:40:15;11.70;;;5.43;;
63050;SDS011;49136;47.416;19.402;2022-07-01T11:42:42;10.20;;;5.57;;
63050;SDS011;49136;47.416;19.402;2022-07-01T11:45:08;11.63;;;5.65;;
63050;SDS011;49136;47.416;19.402;2022-07-01T11:47:34;14.80;;;6.25;;
63050;SDS011;49136;47.416;19.402;2022-07-01T11:50:00;13.48;;;5.70;;
63050;SDS011;49136;47.416;19.402;2022-07-01T11:52:26;11.70;;;5.50;;
63050;SDS011;49136;47.416;19.402;2022-07-01T11:54:53;18.35;;;6.20;;
63050;SDS011;49136;47.416;19.402;2022-07-01T11:57:22;11.90;;;6.32;;
63050;SDS011;49136;47.416;19.402;2022-07-01T11:59:52;11.40;;;6.43;;
63050;SDS011;49136;47.416;19.402;2022-07-01T12:02:19;14.88;;;6.95;;
63050;SDS011;49136;47.416;19.402;2022-07-01T12:04:47;11.85;;;6.25;;
63050;SDS011;49136;47.416;19.402;2022-07-01T12:07:14;13.20;;;6.20;;
63050;SDS011;49136;47.416;19.402;2022-07-01T12:09:41;9.40;;;5.47;;
63050;SDS011;49136;47.416;19.402;2022-07-01T12:12:07;17.23;;;6.80;;
63050;SDS011;49136;47.416;19.402;2022-07-01T12:14:40;14.68;;;6.43;;
63050;SDS011;49136;47.416;19.402;2022-07-01T12:17:06;13.82;;;6.13;;
63050;SDS011;49136;47.416;19.402;2022-07-01T12:22:03;13.20;;;6.32;;
63050;SDS011;49136;47.416;19.402;2022-07-01T12:24:31;17.00;;;7.40;;
63050;SDS011;49136;47.416;19.402;2022-07-01T12:29:23;14.85;;;6.50;;
63050;SDS011;49136;47.416;19.402;2022-07-01T12:31:58;10.68;;;6.70;;
63050;SDS011;49136;47.416;19.402;2022-07-01T12:34:36;12.90;;;6.50;;
63050;SDS011;49136;47.416;19.402;2022-07-01T12:37:25;22.95;;;7.43;;
63050;SDS011;49136;47.416;19.402;2022-07-01T12:39:53;16.35;;;6.80;;
63050;SDS011;49136;47.416;19.402;2022-07-01T12:42:26;17.73;;;6.10;;
63050;SDS011;49136;47.416;19.402;2022-07-01T12:45:00;18.42;;;5.70;;
63050;SDS011;49136;47.416;19.402;2022-07-01T12:47:28;11.70;;;6.85;;
63050;SDS011;49136;47.416;19.402;2022-07-01T12:55:27;8.98;;;5.85;;
63050;SDS011;49136;47.416;19.402;2022-07-01T12:57:56;7.97;;;5.20;;
63050;SDS011;49136;47.416;19.402;2022-07-01T13:00:24;12.02;;;5.70;;
63050;SDS011;49136;47.416;19.402;2022-07-01T13:02:53;11.48;;;5.70;;
63050;SDS011;49136;47.416;19.402;2022-07-01T13:05:19;10.70;;;5.88;;
63050;SDS011;49136;47.416;19.402;2022-07-01T13:07:45;16.10;;;5.25;;
63050;SDS011;49136;47.416;19.402;2022-07-01T13:10:10;18.95;;;6.05;;
63050;SDS011;49136;47.416;19.402;2022-07-01T13:12:36;34.17;;;6.10;;
63050;SDS011;49136;47.416;19.402;2022-07-01T13:15:02;11.80;;;6.65;;
63050;SDS011;49136;47.416;19.402;2022-07-01T13:17:28;14.95;;;6.35;;
63050;SDS011;49136;47.416;19.402;2022-07-01T13:19:53;9.13;;;5.28;;
63050;SDS011;49136;47.416;19.402;2022-07-01T13:22:19;12.95;;;5.55;;
63050;SDS011;49136;47.416;19.402;2022-07-01T13:24:45;8.98;;;4.78;;
63050;SDS011;49136;47.416;19.402;2022-07-01T13:27:11;12.73;;;5.70;;
63050;SDS011;49136;47.416;19.402;2022-07-01T13:29:37;8.20;;;4.53;;
63050;SDS011;49136;47.416;19.402;2022-07-01T13:32:03;21.60;;;5.10;;
63050;SDS011;49136;47.416;19.402;2022-07-01T13:34:29;13.10;;;5.20;;
63050;SDS011;49136;47.416;19.402;2022-07-01T13:36:55;16.92;;;6.40;;
63050;SDS011;49136;47.416;19.402;2022-07-01T13:39:21;20.35;;;6.55;;
63050;SDS011;49136;47.416;19.402;2022-07-01T13:41:47;11.02;;;5.60;;
63050;SDS011;49136;47.416;19.402;2022-07-01T13:44:13;21.83;;;6.45;;
63050;SDS011;49136;47.416;19.402;2022-07-01T13:46:41;14.23;;;5.65;;
63050;SDS011;49136;47.416;19.402;2022-07-01T13:49:07;9.93;;;5.10;;
63050;SDS011;49136;47.416;19.402;2022-07-01T13:51:32;15.75;;;5.72;;
63050;SDS011;49136;47.416;19.402;2022-07-01T13:53:58;10.88;;;5.85;;
63050;SDS011;49136;47.416;19.402;2022-07-01T13:56:24;8.98;;;5.35;;
63050;SDS011;49136;47.416;19.402;2022-07-01T13:58:50;15.38;;;5.85;;
63050;SDS011;49136;47.416;19.402;2022-07-01T14:01:17;12.88;;;5.68;;
63050;SDS011;49136;47.416;19.402;2022-07-01T14:03:44;14.07;;;5.50;;
63050;SDS011;49136;47.416;19.402;2022-07-01T14:06:09;9.07;;;5.47;;
63050;SDS011;49136;47.416;19.402;2022-07-01T14:08:35;14.88;;;5.43;;
63050;SDS011;49136;47.416;19.402;2022-07-01T14:11:00;13.27;;;5.65;;
63050;SDS011;49136;47.416;19.402;2022-07-01T14:13:26;14.30;;;6.07;;
63050;SDS011;49136;47.416;19.402;2022-07-01T14:15:51;13.77;;;6.60;;
63050;SDS011;49136;47.416;19.402;2022-07-01T14:18:17;16.73;;;5.82;;
63050;SDS011;49136;47.416;19.402;2022-07-01T14:20:42;16.17;;;7.00;;
63050;SDS011;49136;47.416;19.402;2022-07-01T14:23:08;23.23;;;6.60;;
63050;SDS011;49136;47.416;19.402;2022-07-01T14:25:33;7.95;;;5.35;;
63050;SDS011;49136;47.416;19.402;2022-07-01T14:27:59;16.20;;;5.60;;
63050;SDS011;49136;47.416;19.402;2022-07-01T14:30:24;12.05;;;5.82;;
63050;SDS011;49136;47.416;19.402;2022-07-01T14:32:50;13.35;;;6.18;;
63050;SDS011;49136;47.416;19.402;2022-07-01T14:35:17;20.50;;;6.18;;
63050;SDS011;49136;47.416;19.402;2022-07-01T14:37:43;16.55;;;6.43;;
63050;SDS011;49136;47.416;19.402;2022-07-01T14:40:09;15.15;;;5.97;;
63050;SDS011;49136;47.416;19.402;2022-07-01T14:42:37;16.95;;;6.05;;
63050;SDS011;49136;47.416;19.402;2022-07-01T14:45:03;29.30;;;6.85;;
63050;SDS011;49136;47.416;19.402;2022-07-01T14:47:29;17.27;;;5.78;;
63050;SDS011;49136;47.416;19.402;2022-07-01T14:49:54;15.70;;;6.65;;
63050;SDS011;49136;47.416;19.402;2022-07-01T14:52:21;11.63;;;6.50;;
63050;SDS011;49136;47.416;19.402;2022-07-01T14:54:47;8.98;;;5.68;;
63050;SDS011;49136;47.416;19.402;2022-07-01T14:57:14;14.40;;;6.05;;
63050;SDS011;49136;47.416;19.402;2022-07-01T14:59:40;11.25;;;5.93;;
63050;SDS011;49136;47.416;19.402;2022-07-01T15:02:06;13.23;;;6.30;;
63050;SDS011;49136;47.416;19.402;2022-07-01T15:04:31;22.65;;;6.80;;
63050;SDS011;49136;47.416;19.402;2022-07-01T15:06:57;16.80;;;6.47;;